Résultats

Traversee Canard Dauphins 2018 : 5Km

5 Km
23/09/2018 à 09:30:00 - Carry-le-Rouet (13)
214 arrivant(e)s.





Place▲ Temps Dossard Nom Prenom Categ #Categ Sexe #Sexe Club Vit Moy Diplôme Partager
1 00:43:22 269 RUSSO THOMAS 5PLM 1 M 1 CANNES SAUVETAGE COTIER 6.92
2 00:45:30 268 NIERI BRUNO 5PLM 2 M 2 E.S.M 6.59
3 00:46:15 264 GRAFFINO JULIEN 5PLM 3 M 3 CANNES SAUVETAGE COTIER 6.49
4 00:49:23 262 COSSO-HOEDT NICOLAS 5PLM 4 M 4 CANNES SAUVETAGE COTIER 6.07
5 00:49:51 271 WARIN ENZO 5PLM 5 M 5 E.S.S.V 6.02
6 00:52:10 266 MARRO VALENTIN 5PLM 6 M 6 ESSV 5.75
7 00:56:53 263 FERNANDEZ MELANIE 5PLF 1 F 1 CANNES SAUVETAGE COTIER 5.27
8 00:57:05 198 INCONNU X 5SF 1 F 2 5.26
9 00:59:45 94 CLERDOUET ROLAND 5MM 1 M 7 5.02
10 01:01:50 265 INTARTAGLIA KENZO 5PLM 7 M 8 E.S.S.V 4.85
11 01:02:01 270 VICQ VALENTIN 5PLM 8 M 9 ESSV 4.84
12 01:02:20 106 NOVELLI GERARD 5MM 2 M 10 CAAP 4.81
13 01:03:09 101 GUERIN NATHALIE 5MF 1 F 3 COTE BLEUE PASSION 4.75
14 01:03:10 105 MARGE FLORENCE 5MF 2 F 4 CNHC 4.75
15 01:04:26 103 LANNOY LAURENT 5MM 3 M 11 TOULOUSE METROPOLE PALMES 4.66
16 01:05:54 56 LEMAIRE GAEL 5BM 1 M 12 4.55
17 01:06:06 11 BECQ EMILIE 5BF 1 F 5 CSAKB 4.54
18 01:06:48 102 GUILBERT ELISE 5MF 3 F 6 LYON PALME 4.49
19 01:06:54 96 ETIENNE FREDERIC 5MM 4 M 13 CSAKB 4.48
20 01:07:38 61 LUCIANI PHILIPPE 5BM 2 M 14 COTE BLEUE PASSION 4.44
21 01:07:46 193 LEQUEUX SEBASTIEN 5SM 1 M 15 CAAP 4.43
22 01:08:13 27 COLOMBE DENIS 5BM 3 M 16 COTE BLEU PASSION 4.40
23 01:08:48 267 MOUDERY KILLIAN 5PLM 9 M 17 E.S.S.V 4.36
24 01:08:53 91 BOTTERO SERGE 5MM 5 M 18 CAAP 4.36
25 01:08:59 213 METAIS LOIC 5SM 2 M 19 PAN 4.35
26 01:09:46 52 KOPCZYNSKI YVAN 5BM 4 M 20 EAU VIVE PLONGEE ORLEANS 4.30
27 01:09:49 160 DUBOIS JEAN-MARC 5SM 3 M 21 4.30
28 01:10:05 185 IMBERT JULIEN 5SM 4 M 22 4.28
29 01:10:11 161 DUBOIS STEPHANE 5SM 5 M 23 VENTOUX TRIATHLON CARPENTRAS 4.27
30 01:10:34 99 GIRAUD THIERRY 5MM 6 M 24 LYON PALME 4.25
31 01:11:18 73 PONTIER REGIS 5BM 5 M 25 CAAP 4.21
32 01:12:30 90 BERTRAND NATHALIE 5MF 4 F 7 LYON PALME 4.14
33 01:13:27 109 ROSSI MIRIA 5MF 5 F 8 CAAP 4.08
34 01:13:41 97 FRANCHI RODOLPHE 5MM 7 M 26 CSAKB 4.07
35 01:13:46 39 FLORES GUILLEM 5BM 6 M 27 SP NBE 4.07
36 01:13:46 87 WALCZAK DELPHINE 5BF 2 F 9 CAAP 4.07
37 01:14:31 7 BARDEL THOMAS 5BM 7 M 28 CLAM 4.03
38 01:14:53 93 N:Anonyme 93 P:Anonyme 93 5MM 8 M 29 LYON PALMES. 4.01
39 01:15:34 225 PAGANINI MATHIEU 5SM 6 M 30 VITROLLES TRIATHLON 3.97
40 01:15:37 259 TRICOT NICOLAS 5SM 7 M 31 3.97
41 01:15:37 158 DIEBOLD LEA 5SF 2 F 10 3.97
42 01:16:57 33 DREVET NATHALIE 5BF 3 F 11 3.90
43 01:17:09 42 GABRIEL PAUL 5BM 8 M 32 3.89
44 01:17:15 45 GRUDE CHRISTOPHE 5BM 9 M 33 AQUADROME 3.88
45 01:18:07 85 TRABAUD LAURENT 5BM 10 M 34 FOS NATATION 3.84
46 01:18:16 63 HUET FRED 5SM 8 M 35 CAAP 3.83
47 01:18:18 46 GRUDE LYDIE 5BF 4 F 12 AQUADROME 3.83
48 01:18:24 44 DUPUCH ALEXANDRE 5BM 11 M 36 TEAM MALMOUSQUE/PLAISIRS DE LA MER 3.83
49 01:18:28 170 FORTE LEA 5SF 3 F 13 ROGNAC NATATION 3.82
50 01:18:52 79 SEAUVE SANDRINE 5BF 5 F 14 AQUADROME 3.80
51 01:20:50 89 ZUDDAS MICHEL 5BM 12 M 37 FOS NATATION 3.71
52 01:21:00 17 BONNET LUC 5BM 13 M 38 ASPTT GRAND LYON 3.70
53 01:21:09 37 ESTEVEZ SANDRA 5BF 6 F 15 3.70
54 01:21:42 232 PIGNOL CELIA 5SF 4 F 16 MARIGNANE NATATION 3.67
55 01:22:03 55 LEGER NOLWENN 5BF 7 F 17 3.66
56 01:22:11 151 COULON EMILIE 5SF 5 F 18 ASPTT MARSEILLE 3.65
57 01:22:14 242 REMUSAT THIBAUT 5SM 9 M 39 3.65
58 01:22:34 217 MORNET LAURENT 5SM 10 M 40 AVIGNON LE PONTET TRIATHLON 3.63
59 01:22:40 145 CLANET PIERRE-ANTOINE 5SM 11 M 41 3.63
60 01:23:06 156 DE-PERETTI SEBASTIEN 5SM 12 M 42 3.61
61 01:23:13 49 HAMEL AUDE 5BF 8 F 19 CLUB ISTRES SPORT TRIATHLON 3.61
62 01:23:41 86 VERDELHAN DENIS 5BM 14 M 43 3.58
63 01:23:44 180 GREZES JEAN-MICHEL 5SM 13 M 44 3.58
64 01:23:56 257 TAILLANDIER ERIC 5SM 14 M 45 3.57
65 01:24:29 216 MONACO XAVIER 5SM 15 M 46 ISTRES SPORT TRIATHLON 3.55
66 01:24:32 231 PIERREJEAN YANNICK 5SM 16 M 47 SR CERNAY 3.55
67 01:24:32 230 PIERREJEAN TIFFANY 5SF 6 F 20 CMO VENISSIEUX 3.55
68 01:24:33 177 GIUNCHI-DAMAZ MAEVA 5SF 7 F 21 CMO VENISSIEUX. 3.55
69 01:24:48 43 GAUBERT SONIA 5BF 9 F 22 3.54
70 01:24:56 13 BELIE PHILIPPE 5BM 15 M 48 ASPTT 3.53
71 01:25:01 50 HENTIC PIERREMI 5BM 16 M 49 CLUB DES NAGEURS SALONAIS 3.53
72 01:25:24 16 BONNEMAISON NICOLAS 5BM 17 M 50 3.51
73 01:25:25 219 NAUDIN SIMON 5SM 17 M 51 CSM 3.51
74 01:25:49 28 DALBESIO ROBERT 5BM 18 M 52 USSP PONTET 3.50
75 01:25:53 78 SAUVAGE NATHALIE 5BF 10 F 23 3.49
76 01:25:57 159 DONNET COME 5SM 18 M 53 3.49
77 01:26:24 34 DRIESSENS CHRISTOPHE 5BM 19 M 54 . 3.47
78 01:26:32 64 MERLE VALERIE 5BF 11 F 24 CBP 3.47
79 01:26:39 20 BUFFIERE GILLES 5BM 20 M 55 COTE BLEUE PASSION 3.46
80 01:26:40 83 STEPHAN SERGE 5BM 21 M 56 3.46
81 01:26:58 48 GUILLEMOT FRANCOIS 5BM 22 M 57 THE HUM HUM TEAM-THHT 3.45
82 01:26:58 111 SOHM MICHEL 5MM 9 M 58 COTE BLEUE PASSION 3.45
83 01:27:06 126 BESNARD EUGENIE 5SF 8 F 25 MTC ORANGE 3.44
84 01:27:10 60 LOUVEAU BEATRICE 5BF 12 F 26 COTE BLEUE PASSION 3.44
85 01:27:32 35 DUPUY STEPHANIE 5BF 13 F 27 3.43
86 01:27:36 12 BELALOUCHE MOURAD 5BM 23 M 59 COTE MER 3.42
87 01:27:53 2 AUZENDE ADELINE 5BF 14 F 28 COTE BLEUE PASSION 3.41
88 01:27:53 114 VAN-DER-SCHANS ELISE 5MF 6 F 29 CNO NAGE AVEC PALMES 3.41
89 01:27:58 18 BRABEC AGNES 5BF 15 F 30 FOS NATATION 3.41
90 01:28:08 132 BOYER STEPHANE 5SM 19 M 60 3.40
91 01:28:18 240 N:Anonyme 240 P:Anonyme 240 5SM 20 M 61 SC ARLES 3.40
92 01:28:23 10 BAYOL GUY 5BM 24 M 62 COTE BLEUE PASSION 3.39
93 01:28:26 88 ZAID SARAH 5BF 16 F 31 3.39
94 01:28:39 229 PIACENTILE MARC 5SM 21 M 63 CSPCG 13 3.38
95 01:28:57 70 PIERREL JULIEN 5BM 25 M 64 3.37
96 01:29:05 41 FREBAULT MARC 5BM 26 M 65 3.37
97 01:29:09 191 LE-MARTRET HERVE 5SM 22 M 66 3.37
98 01:29:20 194 LEULLIER DOMINIQUE 5SM 23 M 67 3.36
99 01:29:34 226 PAILHES ERIC 5SM 24 M 68 3.35
100 01:29:39 236 POIROT LIONEL 5SM 25 M 69 TRI CLUB ISLE SUR LA SORGUE 3.35